Gatewood, Missouri
Current Conditions -  °F | °C
As of 10:55 AM on Thursday 30 Oct 2014 (Local Time) from KARG Reporting Station
Clear Clear  
Wind Chill: 55°   Ceiling: Unl
Heat Index: 55°   Visibility: 10mi
Dew Point: 43°   Wind: 5mph
Humidity: 63%   Direction: 140°SE
Pressure: 30.17"   Gusts: NA
Location:  36.58°N, 91.09°W
Report Text: KARG 301555Z AUTO 14004KT 10SM CLR 13/06 A3017 RMK AO1
Loading
Personal Weather Stations






























Interactive Weather Map New forecast layout! Learn more

10-Day Weather Forecast

Advertisements
Track Severe Weather on mobile